Time;durP1;ratioP1;P1;durP2;ratioP2;P2;SDS_P1;SDS_P2;PMS_P1;PMS_P2;Temp;Humidity;BMP_temperature;BMP_pressure;BME280_temperature;BME280_humidity;BME280_pressure;Samples;Min_cycle;Max_cycle;Signal;HPM_P1;HPM_P2
2020/12/04 00:01:36;;;;;;;;;;;19.20;38.60;;;;;;491603;240;1094;-53
2020/12/04 00:03:37;;;;;;;;;;;19.30;38.70;;;;;;491859;240;1285;-53
2020/12/04 00:05:38;;;;;;;;;;;19.30;38.70;;;;;;491703;240;1108;-53
2020/12/04 00:07:40;;;;;;;;;;;19.30;38.70;;;;;;491603;240;1307;-53
2020/12/04 00:09:42;;;;;;;;;;;19.30;38.70;;;;;;491627;240;1287;-53
2020/12/04 00:11:43;;;;;;;;;;;19.30;38.70;;;;;;491698;240;2268;-53
2020/12/04 00:13:44;;;;;;;;;;;19.30;38.70;;;;;;491880;240;1156;-53
2020/12/04 00:15:45;;;;;;;;;;;19.30;38.60;;;;;;491708;240;1220;-54
2020/12/04 00:17:47;;;;;;;;;;;19.30;38.60;;;;;;491694;240;1398;-53
2020/12/04 00:19:48;;;;;;;;;;;19.30;38.60;;;;;;491633;240;1186;-53
2020/12/04 00:21:49;;;;;;;;;;;19.30;38.60;;;;;;491883;240;1044;-53
2020/12/04 00:23:50;;;;;;;;;;;19.30;38.60;;;;;;491610;240;1221;-53
2020/12/04 00:25:52;;;;;;;;;;;19.30;38.60;;;;;;491559;240;1286;-53
2020/12/04 00:27:53;;;;;;;;;;;19.30;38.60;;;;;;491588;240;1008;-53
2020/12/04 00:29:54;;;;;;;;;;;19.30;38.60;;;;;;491600;240;1187;-54
2020/12/04 00:31:56;;;;;;;;;;;19.30;38.60;;;;;;491564;240;2187;-52
2020/12/04 00:33:57;;;;;;;;;;;19.30;38.60;;;;;;491632;240;1327;-53
2020/12/04 00:35:58;;;;;;;;;;;19.30;38.60;;;;;;491580;240;1162;-53
2020/12/04 00:37:59;;;;;;;;;;;19.30;38.50;;;;;;491595;240;1196;-53
2020/12/04 00:40:01;;;;;;;;;;;19.30;38.50;;;;;;491591;240;1199;-53
2020/12/04 00:42:02;;;;;;;;;;;19.30;38.50;;;;;;491792;240;1147;-53
2020/12/04 00:44:03;;;;;;;;;;;19.30;38.60;;;;;;491631;240;1067;-53
2020/12/04 00:46:04;;;;;;;;;;;19.30;38.60;;;;;;491643;240;1059;-53
2020/12/04 00:48:06;;;;;;;;;;;19.30;38.50;;;;;;491655;240;1058;-53
2020/12/04 00:50:07;;;;;;;;;;;19.40;38.60;;;;;;491609;240;1089;-53
2020/12/04 00:52:08;;;;;;;;;;;19.30;38.50;;;;;;491927;240;2172;-53
2020/12/04 00:54:10;;;;;;;;;;;19.30;38.50;;;;;;491646;240;1193;-53
2020/12/04 00:56:11;;;;;;;;;;;19.40;38.60;;;;;;491661;240;973;-53
2020/12/04 00:58:12;;;;;;;;;;;19.30;38.50;;;;;;491642;240;1056;-54
2020/12/04 01:00:14;;;;;;;;;;;19.40;38.50;;;;;;491865;240;1077;-53
2020/12/04 01:02:15;;;;;;;;;;;19.40;38.50;;;;;;491567;240;1221;-53
2020/12/04 01:04:16;;;;;;;;;;;19.30;38.50;;;;;;491674;240;1215;-53
2020/12/04 01:06:17;;;;;;;;;;;19.40;38.60;;;;;;491594;240;1093;-53
2020/12/04 01:08:19;;;;;;;;;;;19.40;38.50;;;;;;491592;240;1069;-53
2020/12/04 01:10:20;;;;;;;;;;;19.40;38.50;;;;;;491655;240;1193;-53
2020/12/04 01:12:21;;;;;;;;;;;19.40;38.50;;;;;;491610;240;2180;-53
2020/12/04 01:14:23;;;;;;;;;;;19.40;38.50;;;;;;491619;240;1112;-53
2020/12/04 01:16:24;;;;;;;;;;;19.40;38.60;;;;;;491688;240;1242;-53
2020/12/04 01:18:25;;;;;;;;;;;19.40;38.50;;;;;;491750;240;1095;-53
2020/12/04 01:20:27;;;;;;;;;;;19.40;38.50;;;;;;491684;240;1107;-53
2020/12/04 01:22:28;;;;;;;;;;;19.40;38.50;;;;;;491615;240;1264;-53
2020/12/04 01:24:29;;;;;;;;;;;19.40;38.50;;;;;;491663;240;1196;-53
2020/12/04 01:26:31;;;;;;;;;;;19.40;38.50;;;;;;491739;240;1194;-53
2020/12/04 01:28:32;;;;;;;;;;;19.40;38.40;;;;;;491682;240;1049;-53
2020/12/04 01:30:33;;;;;;;;;;;19.40;38.50;;;;;;491681;240;1098;-53
2020/12/04 01:32:34;;;;;;;;;;;19.40;38.40;;;;;;491776;240;2184;-53
2020/12/04 01:34:36;;;;;;;;;;;19.40;38.40;;;;;;491751;240;1073;-53
2020/12/04 01:36:37;;;;;;;;;;;19.40;38.40;;;;;;491601;240;1278;-53
2020/12/04 01:38:38;;;;;;;;;;;19.40;38.40;;;;;;491600;240;1147;-53
2020/12/04 01:40:39;;;;;;;;;;;19.40;38.40;;;;;;491706;240;1199;-53
2020/12/04 01:42:41;;;;;;;;;;;19.40;38.40;;;;;;491829;240;1145;-53
2020/12/04 01:44:42;;;;;;;;;;;19.40;38.40;;;;;;491743;240;1322;-53
2020/12/04 01:46:43;;;;;;;;;;;19.40;38.40;;;;;;491703;240;1295;-53
2020/12/04 01:48:45;;;;;;;;;;;19.50;38.40;;;;;;491630;240;1137;-54
2020/12/04 01:50:46;;;;;;;;;;;19.40;38.40;;;;;;491598;240;1063;-53
2020/12/04 01:52:47;;;;;;;;;;;19.40;38.40;;;;;;491614;240;2248;-54
2020/12/04 01:54:48;;;;;;;;;;;19.40;38.40;;;;;;491640;240;1190;-53
2020/12/04 01:56:50;;;;;;;;;;;19.40;38.40;;;;;;491813;240;1235;-53
2020/12/04 01:58:51;;;;;;;;;;;19.50;38.40;;;;;;491648;240;1097;-54
2020/12/04 02:00:52;;;;;;;;;;;19.40;38.40;;;;;;491571;240;1199;-53
2020/12/04 02:02:54;;;;;;;;;;;19.40;38.30;;;;;;491619;240;1058;-53
2020/12/04 02:04:55;;;;;;;;;;;19.50;38.40;;;;;;491622;240;1084;-53
2020/12/04 02:06:56;;;;;;;;;;;19.40;38.40;;;;;;491702;240;1182;-54
2020/12/04 02:08:57;;;;;;;;;;;19.50;38.40;;;;;;491748;240;1216;-53
2020/12/04 02:10:59;;;;;;;;;;;19.50;38.40;;;;;;491563;240;1298;-53
2020/12/04 02:13:00;;;;;;;;;;;19.50;38.30;;;;;;491617;240;2196;-53
2020/12/04 02:15:01;;;;;;;;;;;19.50;38.30;;;;;;491844;240;1312;-53
2020/12/04 02:17:02;;;;;;;;;;;19.50;38.40;;;;;;491751;240;1264;-53
2020/12/04 02:19:04;;;;;;;;;;;19.50;38.30;;;;;;491663;240;1153;-54
2020/12/04 02:21:05;;;;;;;;;;;19.50;38.40;;;;;;491807;240;1088;-53
2020/12/04 02:23:06;;;;;;;;;;;19.50;38.30;;;;;;492108;240;1068;-53
2020/12/04 02:25:08;;;;;;;;;;;19.50;38.30;;;;;;491819;240;1194;-53
2020/12/04 02:27:09;;;;;;;;;;;19.50;38.30;;;;;;491614;240;1316;-54
2020/12/04 02:29:10;;;;;;;;;;;19.50;38.30;;;;;;491637;240;1048;-53
2020/12/04 02:31:11;;;;;;;;;;;19.50;38.30;;;;;;491621;240;1075;-53
2020/12/04 02:33:13;;;;;;;;;;;19.50;38.30;;;;;;491624;240;2184;-53
2020/12/04 02:35:14;;;;;;;;;;;19.50;38.20;;;;;;491581;240;1123;-54
2020/12/04 02:37:15;;;;;;;;;;;19.50;38.20;;;;;;491640;240;1297;-53
2020/12/04 02:39:17;;;;;;;;;;;19.50;38.30;;;;;;491661;240;1150;-54
2020/12/04 02:41:18;;;;;;;;;;;19.50;38.20;;;;;;491689;240;1184;-53
2020/12/04 02:43:19;;;;;;;;;;;19.50;38.20;;;;;;491582;240;1302;-54
2020/12/04 02:45:20;;;;;;;;;;;19.50;38.20;;;;;;491573;240;1085;-53
2020/12/04 02:47:22;;;;;;;;;;;19.50;38.20;;;;;;491938;240;1083;-53
2020/12/04 02:49:23;;;;;;;;;;;19.50;38.20;;;;;;491980;240;1084;-53
2020/12/04 02:51:24;;;;;;;;;;;19.50;38.30;;;;;;491622;240;2204;-53
2020/12/04 02:53:25;;;;;;;;;;;19.50;38.20;;;;;;491634;240;1106;-53
2020/12/04 02:55:27;;;;;;;;;;;19.50;38.20;;;;;;491742;240;1168;-53
2020/12/04 02:57:28;;;;;;;;;;;19.60;38.30;;;;;;491633;240;1074;-54
2020/12/04 02:59:29;;;;;;;;;;;19.60;38.20;;;;;;491719;240;1068;-53
2020/12/04 03:01:31;;;;;;;;;;;19.60;38.20;;;;;;491617;240;1116;-54
2020/12/04 03:03:32;;;;;;;;;;;19.60;38.20;;;;;;491706;240;1135;-54
2020/12/04 03:05:33;;;;;;;;;;;19.60;38.20;;;;;;491591;240;1074;-53
2020/12/04 03:07:36;;;;;;;;;;;19.60;38.20;;;;;;491760;240;1122;-53
2020/12/04 03:09:36;;;;;;;;;;;19.60;38.20;;;;;;491572;240;2290;-54
2020/12/04 03:11:37;;;;;;;;;;;19.60;38.20;;;;;;491626;240;2184;-53
2020/12/04 03:13:38;;;;;;;;;;;19.60;38.20;;;;;;491571;240;1658;-53
2020/12/04 03:15:40;;;;;;;;;;;19.60;38.20;;;;;;491608;240;1204;-54
2020/12/04 03:17:41;;;;;;;;;;;19.60;38.20;;;;;;491620;240;1201;-53
2020/12/04 03:19:42;;;;;;;;;;;19.60;38.20;;;;;;491655;240;1071;-53
2020/12/04 03:21:43;;;;;;;;;;;19.60;38.20;;;;;;491602;240;1293;-53
2020/12/04 03:23:45;;;;;;;;;;;19.60;38.20;;;;;;491781;240;1214;-53
2020/12/04 03:25:48;;;;;;;;;;;19.60;38.20;;;;;;491556;240;1184;-53
2020/12/04 03:27:47;;;;;;;;;;;19.60;38.20;;;;;;491536;242;2124;-53
2020/12/04 03:29:49;;;;;;;;;;;19.60;38.20;;;;;;491595;240;1238;-54
2020/12/04 03:31:50;;;;;;;;;;;19.60;38.20;;;;;;491570;240;2218;-53
2020/12/04 03:33:51;;;;;;;;;;;19.60;38.20;;;;;;491604;240;1080;-53
2020/12/04 03:35:53;;;;;;;;;;;19.60;38.10;;;;;;491575;240;1064;-53
2020/12/04 03:37:54;;;;;;;;;;;19.60;38.10;;;;;;491517;240;1259;-53
2020/12/04 03:39:55;;;;;;;;;;;19.60;38.10;;;;;;491584;240;1090;-52
2020/12/04 03:41:56;;;;;;;;;;;19.60;38.10;;;;;;491548;240;1211;-53
2020/12/04 03:43:58;;;;;;;;;;;19.60;38.10;;;;;;491579;240;1282;-53
2020/12/04 03:45:59;;;;;;;;;;;19.60;38.10;;;;;;491552;240;1063;-54
2020/12/04 03:48:00;;;;;;;;;;;19.60;38.10;;;;;;491625;240;1125;-53
2020/12/04 03:50:02;;;;;;;;;;;19.60;38.10;;;;;;491627;240;1083;-53
2020/12/04 03:52:03;;;;;;;;;;;19.60;38.10;;;;;;491727;240;2180;-52
2020/12/04 03:54:04;;;;;;;;;;;19.60;38.10;;;;;;491895;240;1065;-53
2020/12/04 03:56:06;;;;;;;;;;;19.60;38.10;;;;;;491785;240;1178;-53
2020/12/04 03:58:07;;;;;;;;;;;19.60;38.10;;;;;;491641;240;1064;-53
2020/12/04 04:00:08;;;;;;;;;;;19.60;38.10;;;;;;491773;240;1083;-53
2020/12/04 04:02:10;;;;;;;;;;;19.60;38.10;;;;;;491612;240;1028;-54
2020/12/04 04:04:11;;;;;;;;;;;19.60;38.00;;;;;;491540;240;1200;-53
2020/12/04 04:06:12;;;;;;;;;;;19.60;38.00;;;;;;491578;240;1059;-53
2020/12/04 04:08:13;;;;;;;;;;;19.60;38.00;;;;;;491550;240;1284;-54
2020/12/04 04:10:15;;;;;;;;;;;19.70;38.10;;;;;;492025;240;1295;-54
2020/12/04 04:12:16;;;;;;;;;;;19.60;38.00;;;;;;491587;240;2175;-53
2020/12/04 04:14:17;;;;;;;;;;;19.70;38.00;;;;;;491761;240;1199;-53
2020/12/04 04:16:18;;;;;;;;;;;19.60;38.00;;;;;;491748;240;1063;-53
2020/12/04 04:18:20;;;;;;;;;;;19.70;38.10;;;;;;491798;240;1063;-53
2020/12/04 04:20:21;;;;;;;;;;;19.70;36.80;;;;;;491939;240;1199;-53
2020/12/04 04:22:22;;;;;;;;;;;19.60;38.00;;;;;;491608;240;1099;-54
2020/12/04 04:24:24;;;;;;;;;;;19.70;38.10;;;;;;491634;240;1296;-53
2020/12/04 04:26:25;;;;;;;;;;;19.70;38.00;;;;;;491794;240;1533;-53
2020/12/04 04:28:26;;;;;;;;;;;19.70;38.10;;;;;;491744;240;1061;-53
2020/12/04 04:30:27;;;;;;;;;;;19.70;38.10;;;;;;491544;240;1187;-53
2020/12/04 04:32:29;;;;;;;;;;;19.70;38.00;;;;;;491757;240;2183;-53
2020/12/04 04:34:30;;;;;;;;;;;19.70;38.00;;;;;;491779;240;1052;-53
2020/12/04 04:36:31;;;;;;;;;;;19.70;38.00;;;;;;491743;240;1048;-53
2020/12/04 04:38:32;;;;;;;;;;;19.70;38.00;;;;;;491921;240;1139;-53
2020/12/04 04:40:34;;;;;;;;;;;19.70;38.00;;;;;;491708;240;1064;-54
2020/12/04 04:42:35;;;;;;;;;;;19.70;38.10;;;;;;491695;240;1168;-53
2020/12/04 04:44:38;;;;;;;;;;;19.70;38.00;;;;;;491783;240;1079;-53
2020/12/04 04:46:38;;;;;;;;;;;19.70;38.00;;;;;;491567;242;2271;-53
2020/12/04 04:48:39;;;;;;;;;;;19.70;38.00;;;;;;491603;240;1095;-53
2020/12/04 04:50:40;;;;;;;;;;;19.70;38.00;;;;;;491562;240;1090;-53
2020/12/04 04:52:41;;;;;;;;;;;19.70;38.00;;;;;;491640;240;2192;-53
2020/12/04 04:54:43;;;;;;;;;;;19.70;38.00;;;;;;491617;240;1034;-54
2020/12/04 04:56:44;;;;;;;;;;;19.70;38.00;;;;;;491612;240;1142;-53
2020/12/04 04:58:45;;;;;;;;;;;19.70;37.90;;;;;;491608;240;1071;-53
2020/12/04 05:00:47;;;;;;;;;;;19.70;37.90;;;;;;491572;240;1212;-53
2020/12/04 05:02:48;;;;;;;;;;;19.70;37.90;;;;;;491812;240;1053;-53
2020/12/04 05:04:49;;;;;;;;;;;19.70;38.00;;;;;;491614;240;1227;-53
2020/12/04 05:06:50;;;;;;;;;;;19.70;37.90;;;;;;491720;240;1064;-54
2020/12/04 05:08:52;;;;;;;;;;;19.70;37.90;;;;;;491607;240;1053;-53
2020/12/04 05:10:53;;;;;;;;;;;19.70;37.90;;;;;;491615;240;995;-53
2020/12/04 05:12:54;;;;;;;;;;;19.70;37.90;;;;;;491574;240;2192;-53
2020/12/04 05:14:56;;;;;;;;;;;19.70;37.90;;;;;;491778;240;1306;-53
2020/12/04 05:16:57;;;;;;;;;;;19.80;38.00;;;;;;491593;240;1098;-53
2020/12/04 05:18:58;;;;;;;;;;;19.70;37.90;;;;;;491599;240;1128;-53
2020/12/04 05:20:59;;;;;;;;;;;19.70;37.90;;;;;;491751;240;1066;-53
2020/12/04 05:23:01;;;;;;;;;;;19.80;38.00;;;;;;491647;240;1198;-53
2020/12/04 05:25:03;;;;;;;;;;;19.70;37.90;;;;;;491661;240;1101;-53
2020/12/04 05:27:04;;;;;;;;;;;19.70;37.90;;;;;;491641;240;1175;-53
2020/12/04 05:29:05;;;;;;;;;;;19.70;37.90;;;;;;491446;240;1245;-53
2020/12/04 05:31:07;;;;;;;;;;;19.80;38.00;;;;;;491566;240;1037;-53
2020/12/04 05:33:08;;;;;;;;;;;19.80;37.90;;;;;;491589;240;2172;-53
2020/12/04 05:35:10;;;;;;;;;;;19.80;37.90;;;;;;491651;240;1047;-53
2020/12/04 05:37:11;;;;;;;;;;;19.80;37.90;;;;;;491641;240;1080;-54
2020/12/04 05:39:12;;;;;;;;;;;19.80;37.90;;;;;;491369;240;1111;-53
2020/12/04 05:41:13;;;;;;;;;;;19.80;37.80;;;;;;491389;240;1068;-53
2020/12/04 05:43:14;;;;;;;;;;;19.80;37.90;;;;;;491426;240;1098;-53
2020/12/04 05:45:16;;;;;;;;;;;19.80;37.90;;;;;;491522;240;1208;-53
2020/12/04 05:47:17;;;;;;;;;;;19.80;37.80;;;;;;491474;240;1114;-53
2020/12/04 05:49:18;;;;;;;;;;;19.80;37.90;;;;;;491409;241;2176;-53
2020/12/04 05:51:20;;;;;;;;;;;19.80;37.90;;;;;;491379;240;1306;-53
2020/12/04 05:53:21;;;;;;;;;;;19.80;37.80;;;;;;491301;240;2175;-52
2020/12/04 05:55:22;;;;;;;;;;;19.80;37.80;;;;;;491415;240;1084;-53
2020/12/04 05:57:23;;;;;;;;;;;19.80;37.80;;;;;;491460;240;1199;-53
2020/12/04 05:59:25;;;;;;;;;;;19.80;37.90;;;;;;491467;240;1218;-53
2020/12/04 06:01:26;;;;;;;;;;;19.80;37.90;;;;;;491445;240;1329;-53
2020/12/04 06:03:27;;;;;;;;;;;19.80;37.80;;;;;;491400;240;1091;-54
2020/12/04 06:05:28;;;;;;;;;;;19.80;37.80;;;;;;491395;240;1094;-54
2020/12/04 06:07:30;;;;;;;;;;;19.80;37.80;;;;;;491421;240;1277;-53
2020/12/04 06:09:31;;;;;;;;;;;19.80;37.90;;;;;;491557;240;1064;-54
2020/12/04 06:11:33;;;;;;;;;;;19.80;37.80;;;;;;491561;240;1300;-53
2020/12/04 06:13:34;;;;;;;;;;;19.80;37.90;;;;;;491455;240;2212;-53
2020/12/04 06:15:35;;;;;;;;;;;19.80;37.90;;;;;;491418;240;1081;-53
2020/12/04 06:17:37;;;;;;;;;;;19.80;37.90;;;;;;491407;240;1100;-53
2020/12/04 06:19:38;;;;;;;;;;;19.80;37.90;;;;;;491283;240;1154;-53
2020/12/04 06:21:39;;;;;;;;;;;19.80;37.90;;;;;;490881;240;1144;-53
2020/12/04 06:23:41;;;;;;;;;;;19.80;36.50;;;;;;491266;240;1115;-53
2020/12/04 06:25:42;;;;;;;;;;;19.80;37.80;;;;;;491409;240;1025;-53
2020/12/04 06:27:44;;;;;;;;;;;19.80;36.50;;;;;;491337;240;1194;-53
2020/12/04 06:29:45;;;;;;;;;;;19.80;37.80;;;;;;491300;240;2096;-53
2020/12/04 06:31:46;;;;;;;;;;;19.80;37.80;;;;;;491214;240;1287;-53
2020/12/04 06:33:47;;;;;;;;;;;19.80;37.80;;;;;;491279;240;2172;-53
2020/12/04 06:35:48;;;;;;;;;;;19.90;37.90;;;;;;491182;240;1060;-53
2020/12/04 06:37:50;;;;;;;;;;;19.80;37.80;;;;;;491241;240;1223;-53
2020/12/04 06:39:51;;;;;;;;;;;19.80;37.80;;;;;;491279;240;1184;-53
2020/12/04 06:41:52;;;;;;;;;;;19.80;37.90;;;;;;491286;240;3073;-53
2020/12/04 06:43:54;;;;;;;;;;;19.90;37.90;;;;;;491149;240;1234;-53
2020/12/04 06:45:55;;;;;;;;;;;19.80;37.80;;;;;;491046;240;1171;-53
2020/12/04 06:47:56;;;;;;;;;;;19.90;37.90;;;;;;491190;240;1221;-53
2020/12/04 06:49:58;;;;;;;;;;;19.90;37.90;;;;;;491278;240;1070;-53
2020/12/04 06:51:59;;;;;;;;;;;19.80;37.80;;;;;;491197;240;1100;-53
2020/12/04 06:54:01;;;;;;;;;;;19.80;37.80;;;;;;491139;240;2180;-53
2020/12/04 06:56:02;;;;;;;;;;;19.90;37.80;;;;;;491188;240;1053;-53
2020/12/04 06:58:03;;;;;;;;;;;19.90;37.90;;;;;;491022;239;1302;-52
2020/12/04 07:00:04;;;;;;;;;;;19.90;37.90;;;;;;491054;240;1089;-53
2020/12/04 07:02:06;;;;;;;;;;;19.90;37.90;;;;;;491053;240;1217;-53
2020/12/04 07:04:07;;;;;;;;;;;19.90;37.80;;;;;;491189;240;1195;-53
2020/12/04 07:06:08;;;;;;;;;;;19.90;37.90;;;;;;491107;240;1062;-54
2020/12/04 07:08:10;;;;;;;;;;;19.90;37.80;;;;;;491107;240;1084;-53
2020/12/04 07:10:11;;;;;;;;;;;19.90;37.80;;;;;;491186;240;1070;-53
2020/12/04 07:12:12;;;;;;;;;;;19.90;37.80;;;;;;491235;240;1053;-53
2020/12/04 07:14:13;;;;;;;;;;;19.90;37.80;;;;;;491256;240;2172;-53
2020/12/04 07:16:15;;;;;;;;;;;19.90;37.80;;;;;;491169;240;1221;-53
2020/12/04 07:18:16;;;;;;;;;;;19.90;37.90;;;;;;491172;240;1074;-53
2020/12/04 07:20:17;;;;;;;;;;;19.90;37.90;;;;;;491033;240;1231;-54
2020/12/04 07:22:18;;;;;;;;;;;19.90;37.90;;;;;;490950;240;1100;-53
2020/12/04 07:24:20;;;;;;;;;;;19.90;37.90;;;;;;491052;240;1111;-53
2020/12/04 07:26:21;;;;;;;;;;;19.90;37.80;;;;;;490949;240;1162;-53
2020/12/04 07:28:22;;;;;;;;;;;19.90;37.90;;;;;;491086;240;1184;-53
2020/12/04 07:30:25;;;;;;;;;;;19.90;37.80;;;;;;491197;240;1212;-54
2020/12/04 07:32:25;;;;;;;;;;;19.90;37.80;;;;;;491078;240;2169;-53
2020/12/04 07:34:28;;;;;;;;;;;19.90;37.90;;;;;;491006;240;2180;-53
2020/12/04 07:36:27;;;;;;;;;;;19.90;36.50;;;;;;491169;240;1983;-53
2020/12/04 07:38:29;;;;;;;;;;;19.90;37.90;;;;;;491179;240;1089;-53
2020/12/04 07:40:30;;;;;;;;;;;19.90;36.50;;;;;;490895;240;2019;-53
2020/12/04 07:42:32;;;;;;;;;;;19.90;37.80;;;;;;491034;240;1265;-53
2020/12/04 07:44:33;;;;;;;;;;;19.90;37.80;;;;;;491111;240;1268;-53
2020/12/04 07:46:35;;;;;;;;;;;19.90;37.80;;;;;;490971;240;1106;-53
2020/12/04 07:48:35;;;;;;;;;;;19.90;37.80;;;;;;491005;240;1359;-53
2020/12/04 07:50:37;;;;;;;;;;;19.90;37.80;;;;;;490909;240;1120;-53
2020/12/04 07:52:49;;;;;;;;;;;19.90;37.90;;;;;;490891;240;1100;-53
2020/12/04 07:54:40;;;;;;;;;;;19.90;37.80;;;;;;490961;241;2233;-53
2020/12/04 07:56:41;;;;;;;;;;;19.90;37.80;;;;;;490983;240;1154;-53
2020/12/04 07:58:42;;;;;;;;;;;20.00;37.90;;;;;;490894;240;1259;-53
2020/12/04 08:00:44;;;;;;;;;;;19.90;37.80;;;;;;490873;240;1390;-53
2020/12/04 08:02:46;;;;;;;;;;;19.90;37.80;;;;;;491091;240;1304;-53
2020/12/04 08:04:46;;;;;;;;;;;19.90;37.80;;;;;;490845;241;2085;-53
2020/12/04 08:06:47;;;;;;;;;;;19.90;37.80;;;;;;490837;240;1234;-53
2020/12/04 08:08:49;;;;;;;;;;;19.90;37.80;;;;;;490792;240;1239;-53
2020/12/04 08:10:50;;;;;;;;;;;19.90;37.80;;;;;;490938;240;1299;-53
2020/12/04 08:12:51;;;;;;;;;;;19.90;37.80;;;;;;491249;240;1156;-53
2020/12/04 08:14:53;;;;;;;;;;;20.00;37.80;;;;;;490766;240;2188;-53
2020/12/04 08:16:55;;;;;;;;;;;19.90;36.40;;;;;;490734;240;1114;-53
2020/12/04 08:18:57;;;;;;;;;;;19.90;37.80;;;;;;490729;240;1124;-53
2020/12/04 08:20:57;;;;;;;;;;;19.90;37.80;;;;;;490794;240;2057;-53
2020/12/04 08:22:59;;;;;;;;;;;20.00;37.80;;;;;;490780;240;1153;-53
2020/12/04 08:25:07;;;;;;;;;;;20.00;37.80;;;;;;490958;240;1212;-53
2020/12/04 08:27:07;;;;;;;;;;;19.90;37.70;;;;;;491194;241;2138;-53
2020/12/04 08:29:08;;;;;;;;;;;19.90;37.70;;;;;;490873;240;1179;-53
2020/12/04 08:31:10;;;;;;;;;;;20.00;37.80;;;;;;490779;240;1177;-53
2020/12/04 08:33:11;;;;;;;;;;;20.00;37.80;;;;;;490865;240;1176;-53
2020/12/04 08:35:12;;;;;;;;;;;19.90;37.80;;;;;;490975;240;2183;-53
2020/12/04 08:37:14;;;;;;;;;;;20.00;37.90;;;;;;490825;240;1196;-53
2020/12/04 08:39:15;;;;;;;;;;;20.00;37.80;;;;;;490947;240;1204;-53
2020/12/04 08:41:16;;;;;;;;;;;20.00;37.80;;;;;;490891;240;1312;-53
2020/12/04 08:43:18;;;;;;;;;;;19.90;37.80;;;;;;490860;240;1096;-54
2020/12/04 08:45:19;;;;;;;;;;;20.00;37.80;;;;;;490730;240;1291;-53
2020/12/04 08:47:20;;;;;;;;;;;20.00;37.80;;;;;;490945;240;1259;-54
2020/12/04 08:49:23;;;;;;;;;;;20.00;37.80;;;;;;490751;240;1318;-53
2020/12/04 08:51:23;;;;;;;;;;;20.00;37.70;;;;;;490790;242;2221;-53
2020/12/04 08:53:24;;;;;;;;;;;20.00;37.70;;;;;;490841;240;2187;-53
2020/12/04 08:55:26;;;;;;;;;;;20.00;37.80;;;;;;490952;240;1231;-53
2020/12/04 08:57:27;;;;;;;;;;;20.00;37.80;;;;;;490926;240;1200;-53
2020/12/04 08:59:28;;;;;;;;;;;20.00;37.70;;;;;;490850;240;1295;-52
2020/12/04 09:01:30;;;;;;;;;;;20.00;37.70;;;;;;490794;240;1065;-53
2020/12/04 09:03:31;;;;;;;;;;;20.00;37.70;;;;;;490743;240;1140;-53
2020/12/04 09:05:32;;;;;;;;;;;20.00;37.80;;;;;;490958;240;1350;-53
2020/12/04 09:07:33;;;;;;;;;;;20.00;37.80;;;;;;490912;240;1059;-53
2020/12/04 09:09:35;;;;;;;;;;;20.00;37.70;;;;;;490828;240;1303;-54
2020/12/04 09:11:36;;;;;;;;;;;20.00;37.70;;;;;;490973;240;1137;-53
2020/12/04 09:13:37;;;;;;;;;;;20.00;36.40;;;;;;490695;240;2164;-53
2020/12/04 09:15:39;;;;;;;;;;;20.00;37.70;;;;;;490716;240;1175;-53
2020/12/04 09:17:40;;;;;;;;;;;20.00;37.70;;;;;;490782;240;1127;-53
2020/12/04 09:19:41;;;;;;;;;;;20.00;36.40;;;;;;490777;240;1299;-53
2020/12/04 09:21:42;;;;;;;;;;;20.00;37.70;;;;;;491128;240;1096;-53
2020/12/04 09:23:44;;;;;;;;;;;20.00;37.70;;;;;;491456;240;1090;-53
2020/12/04 09:25:45;;;;;;;;;;;20.00;37.70;;;;;;490797;240;1222;-53
2020/12/04 09:27:46;;;;;;;;;;;20.00;37.70;;;;;;490792;240;1062;-53
2020/12/04 09:29:48;;;;;;;;;;;20.00;37.70;;;;;;490869;240;1279;-53
2020/12/04 09:31:49;;;;;;;;;;;20.00;36.40;;;;;;490858;240;1186;-53
2020/12/04 09:33:50;;;;;;;;;;;20.00;37.70;;;;;;490804;240;2196;-53
2020/12/04 09:35:51;;;;;;;;;;;20.00;37.70;;;;;;490818;240;1246;-53
2020/12/04 09:37:53;;;;;;;;;;;20.00;37.70;;;;;;490793;240;1086;-53
2020/12/04 09:39:54;;;;;;;;;;;20.00;37.70;;;;;;490960;240;1106;-53
2020/12/04 09:41:55;;;;;;;;;;;20.00;37.70;;;;;;490817;240;1208;-53
2020/12/04 09:43:57;;;;;;;;;;;20.00;37.70;;;;;;490766;240;1137;-53
2020/12/04 09:45:58;;;;;;;;;;;20.10;37.80;;;;;;490593;240;1120;-53
2020/12/04 09:47:59;;;;;;;;;;;20.00;37.70;;;;;;490631;240;1234;-53
2020/12/04 09:50:00;;;;;;;;;;;20.00;37.70;;;;;;490604;240;1123;-53
2020/12/04 09:52:02;;;;;;;;;;;20.00;37.60;;;;;;490555;240;1206;-53
2020/12/04 09:54:03;;;;;;;;;;;20.00;37.70;;;;;;490785;240;2184;-53
2020/12/04 09:56:05;;;;;;;;;;;20.00;37.70;;;;;;490939;240;1161;-53
2020/12/04 09:58:08;;;;;;;;;;;20.10;37.70;;;;;;490853;240;1241;-53
2020/12/04 10:00:07;;;;;;;;;;;20.00;37.70;;;;;;490699;240;2198;-53
2020/12/04 10:02:08;;;;;;;;;;;20.00;37.60;;;;;;490597;240;1354;-53
2020/12/04 10:04:10;;;;;;;;;;;20.00;37.70;;;;;;490695;240;1081;-53
2020/12/04 10:06:11;;;;;;;;;;;20.00;36.40;;;;;;490739;240;1218;-53
2020/12/04 10:08:12;;;;;;;;;;;20.10;37.70;;;;;;490731;240;1087;-53
2020/12/04 10:10:14;;;;;;;;;;;20.10;37.70;;;;;;490851;240;1059;-53
2020/12/04 10:12:15;;;;;;;;;;;20.00;37.60;;;;;;490824;240;1233;-53
2020/12/04 10:14:16;;;;;;;;;;;20.10;37.70;;;;;;490708;240;2195;-53
2020/12/04 10:16:17;;;;;;;;;;;20.10;36.40;;;;;;490800;240;1149;-53
2020/12/04 10:18:19;;;;;;;;;;;20.10;37.70;;;;;;490830;240;1194;-53
2020/12/04 10:20:20;;;;;;;;;;;20.10;37.70;;;;;;490814;240;1242;-53
2020/12/04 10:22:21;;;;;;;;;;;20.10;37.70;;;;;;490733;240;1152;-53
2020/12/04 10:24:22;;;;;;;;;;;20.10;36.40;;;;;;490987;240;1079;-54
2020/12/04 10:26:24;;;;;;;;;;;20.00;37.60;;;;;;490960;240;1286;-53
2020/12/04 10:28:28;;;;;;;;;;;20.10;37.70;;;;;;490862;240;1114;-53
2020/12/04 10:30:26;;;;;;;;;;;20.10;37.70;;;;;;490725;242;2188;-54
2020/12/04 10:32:28;;;;;;;;;;;20.10;37.70;;;;;;490971;240;1088;-53
2020/12/04 10:34:29;;;;;;;;;;;20.10;37.70;;;;;;490731;240;2191;-54
2020/12/04 10:36:31;;;;;;;;;;;20.10;37.70;;;;;;490755;240;1141;-53
2020/12/04 10:38:32;;;;;;;;;;;20.10;37.60;;;;;;490774;240;1204;-53
2020/12/04 10:40:33;;;;;;;;;;;20.10;37.60;;;;;;490884;240;1088;-53
2020/12/04 10:42:34;;;;;;;;;;;20.10;37.60;;;;;;490787;240;1305;-53
2020/12/04 10:44:36;;;;;;;;;;;20.10;37.60;;;;;;490786;240;1153;-52
2020/12/04 10:46:37;;;;;;;;;;;20.10;37.60;;;;;;490733;240;1360;-53
2020/12/04 10:48:38;;;;;;;;;;;20.10;37.60;;;;;;490816;240;1255;-53
2020/12/04 10:50:39;;;;;;;;;;;20.10;37.60;;;;;;490966;240;1092;-53
2020/12/04 10:52:41;;;;;;;;;;;20.10;37.70;;;;;;490924;240;1177;-54
2020/12/04 10:54:42;;;;;;;;;;;20.10;37.60;;;;;;490841;240;2207;-53
2020/12/04 10:56:43;;;;;;;;;;;20.10;37.60;;;;;;490760;240;1078;-53
2020/12/04 10:58:45;;;;;;;;;;;20.10;37.60;;;;;;490771;240;1085;-53
2020/12/04 11:00:49;;;;;;;;;;;20.10;37.60;;;;;;490897;240;1137;-53
2020/12/04 11:02:54;;;;;;;;;;;20.10;37.60;;;;;;491012;240;2104;-53
2020/12/04 11:07:10;;;;;;;;;;;20.10;37.60;;;;;;490799;242;1164;-53
2020/12/04 11:09:11;;;;;;;;;;;20.10;37.60;;;;;;490804;240;1072;-53
2020/12/04 11:11:12;;;;;;;;;;;20.10;37.60;;;;;;491064;240;1063;-53
2020/12/04 11:13:13;;;;;;;;;;;20.10;37.60;;;;;;490956;240;1094;-53
2020/12/04 11:15:15;;;;;;;;;;;20.10;37.60;;;;;;490688;240;2167;-53
2020/12/04 11:17:16;;;;;;;;;;;20.10;36.30;;;;;;490670;240;1126;-53
2020/12/04 11:19:18;;;;;;;;;;;20.10;37.60;;;;;;490845;240;1165;-53
2020/12/04 11:21:19;;;;;;;;;;;20.10;36.30;;;;;;490898;240;1074;-53
2020/12/04 11:23:20;;;;;;;;;;;20.10;37.60;;;;;;490783;240;1117;-53
2020/12/04 11:25:21;;;;;;;;;;;20.10;37.60;;;;;;490958;240;1054;-53
2020/12/04 11:27:23;;;;;;;;;;;20.10;37.60;;;;;;490984;240;1196;-53
2020/12/04 11:29:26;;;;;;;;;;;20.10;37.60;;;;;;490931;240;1195;-53
2020/12/04 11:31:25;;;;;;;;;;;20.10;37.60;;;;;;490910;240;2186;-53
2020/12/04 11:33:27;;;;;;;;;;;20.10;37.60;;;;;;490982;240;1075;-53
2020/12/04 11:35:28;;;;;;;;;;;20.10;37.60;;;;;;490669;240;2207;-53
2020/12/04 11:37:29;;;;;;;;;;;20.10;36.30;;;;;;490682;240;1131;-53
2020/12/04 11:39:30;;;;;;;;;;;20.10;37.60;;;;;;490817;240;1155;-53
2020/12/04 11:41:32;;;;;;;;;;;20.10;36.30;;;;;;490851;240;1226;-54
2020/12/04 11:43:33;;;;;;;;;;;20.10;37.60;;;;;;490850;240;1128;-53
2020/12/04 11:45:34;;;;;;;;;;;20.10;37.50;;;;;;491024;240;1200;-53
2020/12/04 11:47:37;;;;;;;;;;;20.10;37.60;;;;;;490988;240;1372;-53
2020/12/04 11:49:38;;;;;;;;;;;20.10;37.60;;;;;;490934;240;1311;-53
2020/12/04 11:51:39;;;;;;;;;;;20.10;36.30;;;;;;490837;240;1285;-53
2020/12/04 11:53:40;;;;;;;;;;;20.10;37.60;;;;;;490982;240;1092;-53
2020/12/04 11:55:42;;;;;;;;;;;20.10;37.60;;;;;;490871;240;2196;-53
2020/12/04 11:57:43;;;;;;;;;;;20.10;37.50;;;;;;490834;240;1318;-53
2020/12/04 11:59:45;;;;;;;;;;;20.10;37.50;;;;;;490763;240;1133;-53